Airfield :
LOGIN :

Register | Disclaimer

   EN    FR    IT 

 










Legend :    VFR   Marginal VFR   IFR   Intensive IFR   Very Intensive IFR
Visi :
Ceiling :
>= 8 km
>= 3000ft
5 to 8 km
1000 to 3000 ft
1500m to 5 km
500 to 1000 ft
800 to 1500m
200 to 500 ft
< 800m
< 200 ft
Symbols :   Thunderstorms  Fog  Heavy snow  Heavy precipitations  Wind > 20 kt
SIGMETs :     Misc.  Thunderstorms  Icing  Turbulence  Mountain Waves  Volcanic Ashes







- Airport Elevation : 33 ft
- IATA code : MHZ


EGUN - RAF Mildenhall

CURRENT METAR :
  • 131556Z AUTO 08007KT 9999 BKN039 04/02 A3010 RMK AO2 SLP196 T00390021 .

EXPIRED METARs :
  • 131456Z AUTO 11012KT 9999 BKN040 05/02 A3008 RMK AO2 SLP190 T00530018 53001 $
  • 131421Z AUTO 10011KT 9999 BKN046 06/02 A3008 RMK AO2 SLP190 $
  • 131416Z AUTO 10011KT 9999 SCT046 06/02 A3008 RMK AO2 SLP190 $
  • 131356Z AUTO 11013KT 9999 FEW030 FEW037 BKN045 06/01 A3008 RMK AO2 SLP190 T00560009 $

TAF TAF EGUN
Valid from the 13 at 12:00 until the 14 at 18:00 UTC


1312/1418 11009KT 9999 OVC040 QNH3010INS
TEMPO 1312/1316 11012G20KT
BECMG 1315/1316 09009KT 9999 OVC040 QNH3015INS TX07/1313Z TN01/1322Z
No reported NOTAMs for that airfield.



MET'MAP, your aeronautical weather chart ! - Copyright ORBIFLY December 2007 - Disclaimer

ORBIFLY MET'MAP TEAM :

Programming & Development : Alexandra Zaïnal
Concept & Development : Baudouin d'Aumeries
Co-Development & Prog : Marc-Olivier Méhu
Technical & hardware support : Manuel Goepfert

Contact : metmap@orbifly.com




SOURCES & CREDITS :

   NOAA